createdAt,value
2022-11-27T14:20:05.133Z,100566.03
2022-11-27T14:23:12.187Z,100576.16
2022-11-27T14:25:40.788Z,100573.63
2022-11-27T14:28:21.573Z,100576.94
2022-11-27T14:36:43.245Z,100575.31
2022-11-27T14:39:28.073Z,100571.00
2022-11-27T14:42:04.622Z,100561.69
2022-11-27T14:44:32.952Z,100556.56
2022-11-27T14:47:08.307Z,100561.03
2022-11-27T14:49:37.569Z,100556.06
2022-11-27T14:52:14.812Z,100556.44
2022-11-27T14:54:44.847Z,100554.75
2022-11-27T14:58:41.564Z,100554.44
2022-11-27T15:25:41.152Z,100547.16
2022-11-27T15:28:24.002Z,100545.16
2022-11-27T15:30:51.233Z,100545.34
2022-11-27T15:33:27.941Z,100545.47
2022-11-27T15:36:15.797Z,100549.16
2022-11-27T15:38:45.314Z,100548.13
2022-11-27T15:41:26.396Z,100547.47
2022-11-27T15:43:55.852Z,100546.63
2022-11-27T15:46:30.192Z,100545.84
2022-11-27T15:48:58.355Z,100543.31
2022-11-27T15:51:25.269Z,100544.84
2022-11-27T15:53:52.529Z,100535.38
2022-11-27T15:56:19.670Z,100536.19
2022-11-27T15:58:46.945Z,100538.19
2022-11-27T16:01:13.938Z,100536.56
2022-11-27T16:03:41.360Z,100534.88
2022-11-27T16:06:09.304Z,100537.53
2022-11-27T16:08:37.028Z,100539.53
2022-11-27T16:11:09.744Z,100533.56
2022-11-27T16:13:37.117Z,100533.22
2022-11-27T16:16:08.098Z,100537.84
2022-11-27T16:18:35.644Z,100530.91
2022-11-27T16:21:14.460Z,100534.72
2022-11-27T16:23:42.309Z,100531.22
2022-11-27T16:26:14.054Z,100529.59
2022-11-27T16:28:42.398Z,100534.88
2022-11-27T16:31:13.625Z,100527.06
2022-11-27T16:33:41.739Z,100522.28
2022-11-27T16:36:13.523Z,100518.59
2022-11-27T16:38:41.863Z,100518.91
2022-11-27T16:41:18.277Z,100521.88
2022-11-27T16:43:49.536Z,100522.69
2022-11-27T16:46:28.705Z,100520.53
2022-11-27T16:48:58.951Z,100512.59
2022-11-27T16:51:33.386Z,100516.22
2022-11-27T16:54:07.779Z,100515.25
2022-11-27T16:56:36.420Z,100514.56
2022-11-27T16:59:12.559Z,100513.41
2022-11-27T17:01:42.294Z,100517.56
2022-11-27T17:04:20.044Z,100516.88
2022-11-27T17:06:49.846Z,100515.25
2022-11-27T17:09:17.602Z,100514.56
2022-11-27T18:12:46.644Z,100462.50
2022-11-27T18:15:14.859Z,100455.84
2022-11-27T18:17:42.555Z,100454.53
2022-11-27T18:20:11.228Z,100445.41
2022-11-27T18:22:38.424Z,100444.72
2022-11-27T18:25:06.249Z,100436.09
2022-11-27T18:27:34.245Z,100436.09
2022-11-27T18:30:01.889Z,100433.94
2022-11-27T18:32:29.304Z,100430.63
2022-11-27T19:07:03.640Z,100435.59
2022-11-27T19:09:31.480Z,100440.88
2022-11-27T19:11:58.555Z,100438.22
2022-11-27T19:14:26.176Z,100438.09
2022-11-27T19:16:53.396Z,100440.56
2022-11-27T19:22:46.530Z,100443.38
2022-11-27T19:26:19.439Z,100435.75
2022-11-27T19:28:51.928Z,100442.22
2022-11-27T19:31:20.544Z,100437.09
2022-11-27T19:34:00.912Z,100426.63
2022-11-27T19:36:55.748Z,100418.69
2022-11-27T19:42:27.080Z,100418.69
2022-11-27T19:44:55.836Z,100417.72
2022-11-27T19:47:23.242Z,100420.34
2022-11-27T19:49:50.238Z,100415.38
2022-11-27T20:18:50.270Z,100371.53
2022-11-27T20:21:22.514Z,100373.69
2022-11-27T20:23:52.450Z,100374.88
2022-11-27T20:26:24.116Z,100377.41
2022-11-27T20:28:53.374Z,100374.06
2022-11-27T20:31:24.258Z,100367.25
2022-11-27T20:33:54.300Z,100365.53
2022-11-27T20:37:19.320Z,100357.22
2022-11-27T20:56:05.725Z,100366.09
2022-11-27T20:58:40.646Z,100355.38
2022-11-27T21:01:33.366Z,100368.28
2022-11-27T21:04:09.009Z,100366.63
2022-11-27T21:06:43.436Z,100351.72
2022-11-27T21:09:56.205Z,100350.91
2022-11-27T21:12:23.612Z,100354.03
2022-11-27T21:14:50.932Z,100352.69
2022-11-27T21:17:19.481Z,100349.56
2022-11-27T21:19:47.253Z,100357.03
2022-11-27T21:22:14.872Z,100353.41
2022-11-27T21:24:43.674Z,100355.38
2022-11-27T21:27:11.734Z,100352.06
2022-11-27T21:29:39.659Z,100343.13
2022-11-27T21:32:07.029Z,100353.72
2022-11-27T21:34:36.186Z,100344.78
2022-11-27T21:37:03.263Z,100347.25
2022-11-27T21:39:30.892Z,100345.09
2022-11-27T21:41:57.944Z,100339.44
2022-11-27T21:44:25.887Z,100338.09
2022-11-27T21:46:53.699Z,100340.09
2022-11-27T21:49:21.559Z,100346.34
2022-11-27T21:51:54.952Z,100344.00
2022-11-27T21:54:30.088Z,100347.31
2022-11-27T21:56:57.176Z,100341.97
2022-11-27T22:15:11.096Z,100334.91
2022-11-27T22:17:39.399Z,100331.78
2022-11-27T22:20:07.320Z,100328.13
2022-11-27T22:22:34.694Z,100326.16
2022-11-27T22:25:04.655Z,100330.78
2022-11-27T22:27:32.135Z,100318.47
2022-11-27T22:29:59.212Z,100328.41
2022-11-27T22:32:26.521Z,100321.81
2022-11-27T22:34:53.544Z,100311.69
2022-11-27T22:37:20.864Z,100308.91
2022-11-27T22:39:47.828Z,100303.94
2022-11-27T22:42:15.090Z,100301.75
2022-11-27T22:44:42.656Z,100296.63
2022-11-27T22:47:10.335Z,100299.88
2022-11-27T22:49:37.922Z,100291.09
2022-11-27T22:52:05.908Z,100287.16
2022-11-27T22:54:33.188Z,100283.88
2022-11-27T22:57:00.597Z,100275.63
2022-11-27T22:59:33.375Z,100270.16
2022-11-27T23:02:03.769Z,100265.56
2022-11-27T23:04:31.037Z,100260.91
2022-11-27T23:06:58.514Z,100259.75
2022-11-27T23:09:25.750Z,100255.63
2022-11-27T23:11:53.283Z,100254.63
2022-11-27T23:14:20.273Z,100257.91
2022-11-27T23:16:47.720Z,100254.06
2022-11-27T23:19:15.197Z,100260.50
2022-11-27T23:21:42.748Z,100262.84
2022-11-27T23:24:15.379Z,100260.19
2022-11-27T23:26:44.068Z,100258.22
2022-11-27T23:29:11.437Z,100258.88
2022-11-27T23:31:38.996Z,100253.88
2022-11-27T23:34:10.841Z,100264.47
2022-11-27T23:36:38.512Z,100262.13
2022-11-27T23:39:08.393Z,100256.50
2022-11-27T23:41:35.923Z,100251.19
2022-11-27T23:44:03.023Z,100257.81
2022-11-27T23:46:30.689Z,100251.84
2022-11-27T23:49:00.151Z,100247.50
2022-11-27T23:51:32.960Z,100242.09
2022-11-27T23:54:02.301Z,100239.28
2022-11-27T23:56:32.026Z,100238.47
2022-11-27T23:59:00.246Z,100237.63
